India Meteorological Department
Airport METARs
Date : 11-07-2020
Sl. # Airport METAR
1 Ahmedabad VAAH 101930Z 22011KT 4000 HZ FEW015 SCT020 BKN080 28/25 Q1002 NOSIG=
2 Amritsar VIAR 102000Z 06005KT 2500 BR SCT035 SCT090 27/24 Q0996 NOSIG=
3 Bangalore VOBL 102000Z 28007KT 6000 SCT010 BKN080 22/22 Q1012 NOSIG=
4 Bhubaneswar VEBS 102000Z 18010KT 4000 HZ FEW020 28/27 Q1001 NOSIG=
5 Chennai VOMM 102000Z 20004KT 6000 SCT020 BKN100 29/27 Q1005 NOSIG=
6 Coimbatore VOCB 101930Z NIL=
7 Colombo VCBI 101940Z VRB02KT 9999 FEW018 26/26 Q1008 NOSIG=
8 Delhi VIDP 102000Z 34010G25KT 2500 TS SCT030 FEW035CB BKN090 30/23 Q0998 TEMPO 29010G25KT 1500 TSRA=
9 Gauhati VEGT 101930Z NIL=
10 Gaya VEGY 102000Z 00000KT 1800 -RA SCT018 OVC080 26/26 Q0999 =
11 Hyderabad VOHS 102000Z 26006KT 5000 BR SCT010 SCT020 BKN100 23/22 Q1009 NOSIG=
12 Jaipur VIJP 102000Z 23007KT 3000 HZ SCT030 SCT100 31/22 Q0999 NOSIG=
13 Kochi VOCI 102000Z 00000KT 3500 BR SCT015 SCT080 26/25 Q1008 NOSIG=
14 Kolkata VECC 102000Z 20010KT 3600 HZ SCT020 30/29 Q1000 NOSIG=
15 Kozhikode VOCL 102000Z 22003KT 6000 FEW012 BKN080 25/22 Q1008 NOSIG=
16 Lucknow VILK 102000Z 22010KT 3000 BR SCT020 FEW030CB OVC090 27/27 Q0996 TEMPO 1500 TSRA=
17 Mumbai VABB 101930Z 16006KT 2500 HZ SCT018 FEW025TCU SCT100 29/27 Q1004 TEMPO 1500 SHRA=
18 Nagpur VANP 102000Z 21003KT 3000 -RA SCT020 BKN090 25/24 Q1004 NOSIG=
19 Patna VEPT 101830Z 22004KT 2500 -RA FEW010 SCT015 BKN100 27/26 Q0998 NOSIG=
20 Pathankot VIPK 101930Z VRB02KT 6000 FEW025 SCT080 26/21 Q0997 NOSIG=
21 Ranchi VERC 101900Z 26002KT 2000 -RA SCT016 BKN100 23/22 Q1004 NOSIG=
22 Trichy VOTR 101930Z NIL=
23 Trivandrum VOTV 101930Z VRB03KT 3000 BR SCT015 BKN080 27/23 Q1008 NOSIG=
24 Varanasi VEBN 101900Z 23003KT 3000 BR SCT020 BKN100 27/26 Q0998 NOSIG=
25 Vizag VOVZ 101930Z VRB02KT 6000 FEW018 SCT220 28/25 Q1003 NOSIG =
26 Male VRMM 101900Z 20006KT 9999 FEW018 BKN270 29/26 Q1009 NOSIG=
27 Gan VRMG 101900Z 17004KT 9999 FEW018 BKN260 28/26 Q1009 NOSIG=
28 Kathmandu VNKT 101950Z 24003KT 7000 FEW010 SCT030 BKN100 22/22 Q1006 NOSIG=
29 Dhaka VGHS 101930Z 18010KT 4000 HZ SCT012 BKN100 30/24 Q1001 NOSIG=
30 Colombo VCBI 101940Z VRB02KT 9999 FEW018 26/26 Q1008 NOSIG=
31 Karachi OPKC 101930Z 24006KT 6000 BKN020 31/26 Q0999 NOSIG=
32 Lahore OPLA 101925Z 09010KT 4000 FU FEW100 28/23 Q0996 RMK QFE968 RMK A29.42=
33 Leh VILH 101930Z 31010KT 6000 FEW100 19/-6 Q1017 NOSIG=
34 Sri Nagar VISR 101930Z 21003KT 6000 FEW025 20/12 Q1007 NOSIG=
35 Jodhpur VIJO 101930Z 24012KT 6000 FEW030 SCT250 32/25 Q0999 TEMPO 24015G25KT=
36 Jaisalmer VIJR 101930Z 17015KT 6000 SCT250 31/25 Q0998 TEMPO 18015G25KT 5000 BLDU/DU=
37 Bhuj-Rudra VABJ 101930Z 20007KT 6000 SCT012 SCT020 BKN080 29/26 Q1000 TEMPO -RA=
38 Gorakhpur VEGK 101930Z VRB02KT 5000 BR-RA BKN008 SCT015 FEW025CB BKN090 27/27 Q0997 NOSIG=
39 Agra VIAG 101930Z 23009KT 6000 SCT025 SCT250 30/26 Q0996 TEMPO TSRA=
40 Pune VAPO 101930Z 25005KT 6000 SCT025 BKN090 24/22 Q1009 NOSIG=
41 Chandigarh VICG 101930Z 22010KT 6000 SCT030 FEW030CB BKN090 27/27 Q0997 TEMPO TSRA=
42 Jamnagar VAJM 101930Z 19009KT 6000 FEW015 SCT020 BKN090 28/27 Q1000 NOSIG=

 

--- End of List ---